sensor_id;sensor_type;location;lat;lon;timestamp;temperature;humidity
7498;DHT22;3790;48.806;9.140;2022-08-21T00:03:05;18.20;99.90
7498;DHT22;3790;48.806;9.140;2022-08-21T00:08:07;18.10;99.90
7498;DHT22;3790;48.806;9.140;2022-08-21T00:13:07;18.10;99.90
7498;DHT22;3790;48.806;9.140;2022-08-21T00:18:09;17.90;99.90
7498;DHT22;3790;48.806;9.140;2022-08-21T00:23:11;17.80;99.90
7498;DHT22;3790;48.806;9.140;2022-08-21T00:28:12;17.70;99.90
7498;DHT22;3790;48.806;9.140;2022-08-21T00:33:12;17.60;99.90
7498;DHT22;3790;48.806;9.140;2022-08-21T00:38:13;17.50;99.90
7498;DHT22;3790;48.806;9.140;2022-08-21T00:43:20;17.40;99.90
7498;DHT22;3790;48.806;9.140;2022-08-21T00:48:22;17.20;99.90
7498;DHT22;3790;48.806;9.140;2022-08-21T00:53:24;17.10;99.90
7498;DHT22;3790;48.806;9.140;2022-08-21T00:58:26;17.20;99.90
7498;DHT22;3790;48.806;9.140;2022-08-21T01:03:27;17.20;99.90
7498;DHT22;3790;48.806;9.140;2022-08-21T01:08:28;17.20;99.90
7498;DHT22;3790;48.806;9.140;2022-08-21T01:13:32;17.10;99.90
7498;DHT22;3790;48.806;9.140;2022-08-21T01:18:35;17.00;99.90
7498;DHT22;3790;48.806;9.140;2022-08-21T01:23:38;17.10;99.90
7498;DHT22;3790;48.806;9.140;2022-08-21T01:28:52;17.00;99.90
7498;DHT22;3790;48.806;9.140;2022-08-21T01:33:55;16.90;99.90
7498;DHT22;3790;48.806;9.140;2022-08-21T01:38:56;16.70;99.90
7498;DHT22;3790;48.806;9.140;2022-08-21T01:43:57;16.70;99.90
7498;DHT22;3790;48.806;9.140;2022-08-21T01:48:57;16.60;99.90
7498;DHT22;3790;48.806;9.140;2022-08-21T01:53:58;16.40;99.90
7498;DHT22;3790;48.806;9.140;2022-08-21T01:58:58;16.40;99.90
7498;DHT22;3790;48.806;9.140;2022-08-21T02:03:59;16.30;99.90
7498;DHT22;3790;48.806;9.140;2022-08-21T02:09:02;16.30;99.90
7498;DHT22;3790;48.806;9.140;2022-08-21T02:14:03;16.30;99.90
7498;DHT22;3790;48.806;9.140;2022-08-21T02:19:04;16.20;99.90
7498;DHT22;3790;48.806;9.140;2022-08-21T02:24:05;16.20;99.90
7498;DHT22;3790;48.806;9.140;2022-08-21T02:29:05;16.10;99.90
7498;DHT22;3790;48.806;9.140;2022-08-21T02:34:06;15.90;99.90
7498;DHT22;3790;48.806;9.140;2022-08-21T02:39:07;15.80;99.90
7498;DHT22;3790;48.806;9.140;2022-08-21T02:44:07;15.80;99.90
7498;DHT22;3790;48.806;9.140;2022-08-21T02:49:08;15.70;99.90
7498;DHT22;3790;48.806;9.140;2022-08-21T02:54:08;15.50;99.90
7498;DHT22;3790;48.806;9.140;2022-08-21T02:59:09;15.40;99.90
7498;DHT22;3790;48.806;9.140;2022-08-21T03:04:09;15.40;99.90
7498;DHT22;3790;48.806;9.140;2022-08-21T03:09:10;15.20;99.90
7498;DHT22;3790;48.806;9.140;2022-08-21T03:14:11;15.20;99.90
7498;DHT22;3790;48.806;9.140;2022-08-21T03:19:12;15.10;99.90
7498;DHT22;3790;48.806;9.140;2022-08-21T03:24:13;15.00;99.90
7498;DHT22;3790;48.806;9.140;2022-08-21T03:29:13;14.80;99.90
7498;DHT22;3790;48.806;9.140;2022-08-21T03:34:14;14.90;99.90
7498;DHT22;3790;48.806;9.140;2022-08-21T03:39:15;14.90;99.90
7498;DHT22;3790;48.806;9.140;2022-08-21T03:44:16;14.80;99.90
7498;DHT22;3790;48.806;9.140;2022-08-21T03:49:17;14.80;99.90
7498;DHT22;3790;48.806;9.140;2022-08-21T03:54:17;14.70;99.90
7498;DHT22;3790;48.806;9.140;2022-08-21T03:59:18;14.60;99.90
7498;DHT22;3790;48.806;9.140;2022-08-21T04:04:20;14.60;99.90
7498;DHT22;3790;48.806;9.140;2022-08-21T04:09:20;14.60;99.90
7498;DHT22;3790;48.806;9.140;2022-08-21T04:14:21;14.60;99.90
7498;DHT22;3790;48.806;9.140;2022-08-21T04:19:22;14.50;99.90
7498;DHT22;3790;48.806;9.140;2022-08-21T04:24:24;14.50;99.90
7498;DHT22;3790;48.806;9.140;2022-08-21T04:29:24;14.30;99.90
7498;DHT22;3790;48.806;9.140;2022-08-21T04:34:25;14.00;99.90
7498;DHT22;3790;48.806;9.140;2022-08-21T04:39:25;14.10;99.90
7498;DHT22;3790;48.806;9.140;2022-08-21T04:44:26;14.20;99.90
7498;DHT22;3790;48.806;9.140;2022-08-21T04:49:26;14.30;99.90
7498;DHT22;3790;48.806;9.140;2022-08-21T04:54:27;14.50;99.90
7498;DHT22;3790;48.806;9.140;2022-08-21T04:59:33;14.80;99.90
7498;DHT22;3790;48.806;9.140;2022-08-21T05:04:39;15.00;99.90
7498;DHT22;3790;48.806;9.140;2022-08-21T05:09:42;15.30;99.90
7498;DHT22;3790;48.806;9.140;2022-08-21T05:14:43;15.70;99.90
7498;DHT22;3790;48.806;9.140;2022-08-21T05:19:43;16.00;99.90
7498;DHT22;3790;48.806;9.140;2022-08-21T05:24:44;16.20;99.90
7498;DHT22;3790;48.806;9.140;2022-08-21T05:29:44;16.30;99.90
7498;DHT22;3790;48.806;9.140;2022-08-21T05:34:45;16.40;99.90
7498;DHT22;3790;48.806;9.140;2022-08-21T05:39:45;16.60;99.90
7498;DHT22;3790;48.806;9.140;2022-08-21T05:44:46;16.70;99.90
7498;DHT22;3790;48.806;9.140;2022-08-21T05:49:46;16.70;99.90
7498;DHT22;3790;48.806;9.140;2022-08-21T05:54:47;16.50;99.90
7498;DHT22;3790;48.806;9.140;2022-08-21T05:59:48;16.60;99.90
7498;DHT22;3790;48.806;9.140;2022-08-21T06:04:49;16.90;99.90
7498;DHT22;3790;48.806;9.140;2022-08-21T06:09:49;17.20;99.90
7498;DHT22;3790;48.806;9.140;2022-08-21T06:14:50;17.50;99.90
7498;DHT22;3790;48.806;9.140;2022-08-21T06:19:53;17.60;99.90
7498;DHT22;3790;48.806;9.140;2022-08-21T06:24:53;17.70;99.90
7498;DHT22;3790;48.806;9.140;2022-08-21T06:29:54;17.80;99.90
7498;DHT22;3790;48.806;9.140;2022-08-21T06:34:56;18.10;99.90
7498;DHT22;3790;48.806;9.140;2022-08-21T06:39:57;18.30;99.90
7498;DHT22;3790;48.806;9.140;2022-08-21T06:44:57;18.20;99.90
7498;DHT22;3790;48.806;9.140;2022-08-21T06:49:58;18.50;99.90
7498;DHT22;3790;48.806;9.140;2022-08-21T06:54:58;18.80;99.90
7498;DHT22;3790;48.806;9.140;2022-08-21T06:59:59;18.90;99.90
7498;DHT22;3790;48.806;9.140;2022-08-21T07:05:00;18.90;99.90
7498;DHT22;3790;48.806;9.140;2022-08-21T07:10:00;19.00;99.90
7498;DHT22;3790;48.806;9.140;2022-08-21T07:15:01;19.00;99.90
7498;DHT22;3790;48.806;9.140;2022-08-21T07:20:02;19.30;99.90
7498;DHT22;3790;48.806;9.140;2022-08-21T07:25:05;19.60;99.90
7498;DHT22;3790;48.806;9.140;2022-08-21T07:30:06;19.80;99.90
7498;DHT22;3790;48.806;9.140;2022-08-21T07:35:07;20.10;99.90
7498;DHT22;3790;48.806;9.140;2022-08-21T07:40:08;20.20;99.90
7498;DHT22;3790;48.806;9.140;2022-08-21T07:45:10;20.30;99.90
7498;DHT22;3790;48.806;9.140;2022-08-21T07:50:12;20.50;99.90
7498;DHT22;3790;48.806;9.140;2022-08-21T07:55:16;20.60;99.90
7498;DHT22;3790;48.806;9.140;2022-08-21T08:00:26;20.70;99.90
7498;DHT22;3790;48.806;9.140;2022-08-21T08:05:29;21.00;99.90
7498;DHT22;3790;48.806;9.140;2022-08-21T08:10:31;21.10;99.90
7498;DHT22;3790;48.806;9.140;2022-08-21T08:15:31;21.20;99.90
7498;DHT22;3790;48.806;9.140;2022-08-21T08:20:32;21.40;99.90
7498;DHT22;3790;48.806;9.140;2022-08-21T08:25:33;21.50;99.90
7498;DHT22;3790;48.806;9.140;2022-08-21T08:30:34;21.60;99.90
7498;DHT22;3790;48.806;9.140;2022-08-21T08:35:34;21.80;99.90
7498;DHT22;3790;48.806;9.140;2022-08-21T08:41:01;21.90;99.90
7498;DHT22;3790;48.806;9.140;2022-08-21T08:46:11;22.00;99.90
7498;DHT22;3790;48.806;9.140;2022-08-21T08:51:21;22.10;99.90
7498;DHT22;3790;48.806;9.140;2022-08-21T08:56:28;22.30;99.90
7498;DHT22;3790;48.806;9.140;2022-08-21T09:01:28;22.40;99.90
7498;DHT22;3790;48.806;9.140;2022-08-21T09:12:03;22.70;99.90
7498;DHT22;3790;48.806;9.140;2022-08-21T09:17:26;22.80;99.90
7498;DHT22;3790;48.806;9.140;2022-08-21T09:27:40;23.00;99.90
7498;DHT22;3790;48.806;9.140;2022-08-21T09:32:41;23.20;99.90
7498;DHT22;3790;48.806;9.140;2022-08-21T09:37:52;23.20;99.90
7498;DHT22;3790;48.806;9.140;2022-08-21T09:43:05;23.50;99.90
7498;DHT22;3790;48.806;9.140;2022-08-21T09:53:26;23.90;99.90
7498;DHT22;3790;48.806;9.140;2022-08-21T09:58:33;23.90;99.90
7498;DHT22;3790;48.806;9.140;2022-08-21T10:03:34;23.80;99.90
7498;DHT22;3790;48.806;9.140;2022-08-21T10:08:36;24.00;99.90
7498;DHT22;3790;48.806;9.140;2022-08-21T10:30:04;24.30;99.90
7498;DHT22;3790;48.806;9.140;2022-08-21T10:35:25;24.30;99.90
7498;DHT22;3790;48.806;9.140;2022-08-21T10:41:14;24.40;99.90
7498;DHT22;3790;48.806;9.140;2022-08-21T10:46:16;24.80;99.90
7498;DHT22;3790;48.806;9.140;2022-08-21T10:51:42;25.10;99.90
7498;DHT22;3790;48.806;9.140;2022-08-21T10:56:47;25.20;99.90
7498;DHT22;3790;48.806;9.140;2022-08-21T11:01:54;25.50;99.50
7498;DHT22;3790;48.806;9.140;2022-08-21T11:07:06;25.60;98.80
7498;DHT22;3790;48.806;9.140;2022-08-21T11:12:24;25.90;97.70
7498;DHT22;3790;48.806;9.140;2022-08-21T11:17:52;26.00;96.70
7498;DHT22;3790;48.806;9.140;2022-08-21T11:23:14;25.90;97.40
7498;DHT22;3790;48.806;9.140;2022-08-21T11:28:28;26.10;97.60
7498;DHT22;3790;48.806;9.140;2022-08-21T11:39:12;28.90;95.40
7498;DHT22;3790;48.806;9.140;2022-08-21T11:44:26;30.60;92.60
7498;DHT22;3790;48.806;9.140;2022-08-21T11:49:46;31.40;90.10
7498;DHT22;3790;48.806;9.140;2022-08-21T11:54:52;30.90;89.20
7498;DHT22;3790;48.806;9.140;2022-08-21T12:00:07;32.70;84.90
7498;DHT22;3790;48.806;9.140;2022-08-21T12:05:30;33.40;81.50
7498;DHT22;3790;48.806;9.140;2022-08-21T12:10:35;34.50;75.00
7498;DHT22;3790;48.806;9.140;2022-08-21T12:15:36;35.90;71.70
7498;DHT22;3790;48.806;9.140;2022-08-21T12:20:44;37.20;66.70
7498;DHT22;3790;48.806;9.140;2022-08-21T12:25:58;38.00;62.10
7498;DHT22;3790;48.806;9.140;2022-08-21T12:31:00;38.00;59.60
7498;DHT22;3790;48.806;9.140;2022-08-21T12:36:12;39.30;56.90
7498;DHT22;3790;48.806;9.140;2022-08-21T12:41:19;39.30;55.10
7498;DHT22;3790;48.806;9.140;2022-08-21T12:46:24;39.00;54.30
7498;DHT22;3790;48.806;9.140;2022-08-21T12:51:33;38.20;52.70
7498;DHT22;3790;48.806;9.140;2022-08-21T12:56:34;34.20;55.60
7498;DHT22;3790;48.806;9.140;2022-08-21T13:01:46;31.10;59.20
7498;DHT22;3790;48.806;9.140;2022-08-21T13:06:50;29.30;61.90
7498;DHT22;3790;48.806;9.140;2022-08-21T13:11:52;29.80;66.20
7498;DHT22;3790;48.806;9.140;2022-08-21T13:16:55;34.00;59.30
7498;DHT22;3790;48.806;9.140;2022-08-21T13:21:56;37.70;54.70
7498;DHT22;3790;48.806;9.140;2022-08-21T13:26:57;40.40;51.40
7498;DHT22;3790;48.806;9.140;2022-08-21T13:32:00;42.90;47.80
7498;DHT22;3790;48.806;9.140;2022-08-21T13:37:07;43.50;45.30
7498;DHT22;3790;48.806;9.140;2022-08-21T13:42:11;44.00;43.00
7498;DHT22;3790;48.806;9.140;2022-08-21T13:47:14;43.20;43.00
7498;DHT22;3790;48.806;9.140;2022-08-21T13:52:21;42.50;42.10
7498;DHT22;3790;48.806;9.140;2022-08-21T13:57:28;42.50;42.50
7498;DHT22;3790;48.806;9.140;2022-08-21T14:02:29;43.10;42.10
7498;DHT22;3790;48.806;9.140;2022-08-21T14:07:40;43.80;40.80
7498;DHT22;3790;48.806;9.140;2022-08-21T14:12:48;43.30;40.00
7498;DHT22;3790;48.806;9.140;2022-08-21T14:17:49;42.70;40.00
7498;DHT22;3790;48.806;9.140;2022-08-21T14:22:49;42.70;40.40
7498;DHT22;3790;48.806;9.140;2022-08-21T14:27:57;42.60;40.40
7498;DHT22;3790;48.806;9.140;2022-08-21T14:32:59;44.30;39.00
7498;DHT22;3790;48.806;9.140;2022-08-21T14:38:00;45.50;38.10
7498;DHT22;3790;48.806;9.140;2022-08-21T14:43:01;45.60;37.50
7498;DHT22;3790;48.806;9.140;2022-08-21T14:48:02;46.20;36.20
7498;DHT22;3790;48.806;9.140;2022-08-21T14:53:03;46.50;35.40
7498;DHT22;3790;48.806;9.140;2022-08-21T14:58:04;46.20;35.60
7498;DHT22;3790;48.806;9.140;2022-08-21T15:03:04;47.50;34.40
7498;DHT22;3790;48.806;9.140;2022-08-21T15:08:05;44.80;34.80
7498;DHT22;3790;48.806;9.140;2022-08-21T15:13:06;44.90;35.00
7498;DHT22;3790;48.806;9.140;2022-08-21T15:18:07;45.90;34.80
7498;DHT22;3790;48.806;9.140;2022-08-21T15:23:08;48.10;33.80
7498;DHT22;3790;48.806;9.140;2022-08-21T15:28:10;49.00;32.30
7498;DHT22;3790;48.806;9.140;2022-08-21T15:33:11;48.80;31.80
7498;DHT22;3790;48.806;9.140;2022-08-21T15:38:12;47.50;31.70
7498;DHT22;3790;48.806;9.140;2022-08-21T15:43:28;45.90;33.10
7498;DHT22;3790;48.806;9.140;2022-08-21T15:48:29;46.60;33.20
7498;DHT22;3790;48.806;9.140;2022-08-21T15:53:29;46.50;32.60
7498;DHT22;3790;48.806;9.140;2022-08-21T15:58:32;46.10;32.30
7498;DHT22;3790;48.806;9.140;2022-08-21T16:03:33;44.70;32.80
7498;DHT22;3790;48.806;9.140;2022-08-21T16:08:33;45.20;32.80
7498;DHT22;3790;48.806;9.140;2022-08-21T16:13:38;44.30;33.10
7498;DHT22;3790;48.806;9.140;2022-08-21T16:18:39;43.80;33.20
7498;DHT22;3790;48.806;9.140;2022-08-21T16:23:40;43.40;33.50
7498;DHT22;3790;48.806;9.140;2022-08-21T16:28:42;42.50;34.20
7498;DHT22;3790;48.806;9.140;2022-08-21T16:33:50;43.00;33.40
7498;DHT22;3790;48.806;9.140;2022-08-21T16:38:52;42.60;33.80
7498;DHT22;3790;48.806;9.140;2022-08-21T16:43:53;41.80;33.80
7498;DHT22;3790;48.806;9.140;2022-08-21T16:48:54;37.30;35.40
7498;DHT22;3790;48.806;9.140;2022-08-21T16:53:54;36.10;38.10
7498;DHT22;3790;48.806;9.140;2022-08-21T16:58:56;37.50;36.80
7498;DHT22;3790;48.806;9.140;2022-08-21T17:03:58;38.70;36.70
7498;DHT22;3790;48.806;9.140;2022-08-21T17:08:59;39.90;35.40
7498;DHT22;3790;48.806;9.140;2022-08-21T17:14:03;39.10;35.70
7498;DHT22;3790;48.806;9.140;2022-08-21T17:19:04;38.50;36.50
7498;DHT22;3790;48.806;9.140;2022-08-21T17:24:05;37.70;36.70
7498;DHT22;3790;48.806;9.140;2022-08-21T17:29:06;36.60;37.20
7498;DHT22;3790;48.806;9.140;2022-08-21T17:34:09;36.00;38.00
7498;DHT22;3790;48.806;9.140;2022-08-21T17:39:10;34.80;39.80
7498;DHT22;3790;48.806;9.140;2022-08-21T17:44:15;34.20;39.40
7498;DHT22;3790;48.806;9.140;2022-08-21T17:49:16;32.10;41.30
7498;DHT22;3790;48.806;9.140;2022-08-21T17:54:17;29.60;44.50
7498;DHT22;3790;48.806;9.140;2022-08-21T17:59:18;27.80;47.50
7498;DHT22;3790;48.806;9.140;2022-08-21T18:04:18;26.70;49.80
7498;DHT22;3790;48.806;9.140;2022-08-21T18:09:19;26.00;52.10
7498;DHT22;3790;48.806;9.140;2022-08-21T18:14:26;25.40;53.40
7498;DHT22;3790;48.806;9.140;2022-08-21T18:19:27;25.10;55.80
7498;DHT22;3790;48.806;9.140;2022-08-21T18:24:28;24.80;57.80
7498;DHT22;3790;48.806;9.140;2022-08-21T18:29:28;24.30;59.80
7498;DHT22;3790;48.806;9.140;2022-08-21T18:34:31;24.00;60.20
7498;DHT22;3790;48.806;9.140;2022-08-21T18:39:34;23.50;62.40
7498;DHT22;3790;48.806;9.140;2022-08-21T18:44:35;23.30;65.50
7498;DHT22;3790;48.806;9.140;2022-08-21T18:49:36;23.10;65.60
7498;DHT22;3790;48.806;9.140;2022-08-21T18:54:37;23.10;68.00
7498;DHT22;3790;48.806;9.140;2022-08-21T18:59:38;22.90;67.50
7498;DHT22;3790;48.806;9.140;2022-08-21T19:04:39;22.70;68.80
7498;DHT22;3790;48.806;9.140;2022-08-21T19:09:40;22.50;69.00
7498;DHT22;3790;48.806;9.140;2022-08-21T19:14:41;22.40;69.10
7498;DHT22;3790;48.806;9.140;2022-08-21T19:19:42;22.30;69.90
7498;DHT22;3790;48.806;9.140;2022-08-21T19:24:42;22.30;68.90
7498;DHT22;3790;48.806;9.140;2022-08-21T19:29:43;22.20;68.30
7498;DHT22;3790;48.806;9.140;2022-08-21T19:34:44;22.10;68.40
7498;DHT22;3790;48.806;9.140;2022-08-21T19:39:45;22.00;68.70
7498;DHT22;3790;48.806;9.140;2022-08-21T19:44:46;21.90;68.00
7498;DHT22;3790;48.806;9.140;2022-08-21T19:49:50;22.00;69.30
7498;DHT22;3790;48.806;9.140;2022-08-21T19:54:51;21.90;69.50
7498;DHT22;3790;48.806;9.140;2022-08-21T19:59:52;21.80;72.30
7498;DHT22;3790;48.806;9.140;2022-08-21T20:04:52;21.60;74.40
7498;DHT22;3790;48.806;9.140;2022-08-21T20:09:54;21.40;72.40
7498;DHT22;3790;48.806;9.140;2022-08-21T20:14:55;21.40;71.60
7498;DHT22;3790;48.806;9.140;2022-08-21T20:19:55;21.50;71.30
7498;DHT22;3790;48.806;9.140;2022-08-21T20:24:56;21.40;74.50
7498;DHT22;3790;48.806;9.140;2022-08-21T20:29:57;21.10;74.60
7498;DHT22;3790;48.806;9.140;2022-08-21T20:34:57;20.90;77.40
7498;DHT22;3790;48.806;9.140;2022-08-21T20:39:58;20.70;77.70
7498;DHT22;3790;48.806;9.140;2022-08-21T20:44:59;20.60;77.60
7498;DHT22;3790;48.806;9.140;2022-08-21T20:50:04;20.70;78.30
7498;DHT22;3790;48.806;9.140;2022-08-21T20:55:09;20.60;81.00
7498;DHT22;3790;48.806;9.140;2022-08-21T21:00:14;20.40;80.80
7498;DHT22;3790;48.806;9.140;2022-08-21T21:05:35;20.30;82.20
7498;DHT22;3790;48.806;9.140;2022-08-21T21:16:07;20.10;87.40
7498;DHT22;3790;48.806;9.140;2022-08-21T21:21:19;20.00;87.30
7498;DHT22;3790;48.806;9.140;2022-08-21T21:26:35;19.90;93.00
7498;DHT22;3790;48.806;9.140;2022-08-21T21:31:37;19.70;94.60
7498;DHT22;3790;48.806;9.140;2022-08-21T21:37:06;19.50;92.80
7498;DHT22;3790;48.806;9.140;2022-08-21T21:42:25;19.30;92.80
7498;DHT22;3790;48.806;9.140;2022-08-21T21:47:54;19.20;92.70
7498;DHT22;3790;48.806;9.140;2022-08-21T21:58:14;19.10;95.00
7498;DHT22;3790;48.806;9.140;2022-08-21T22:03:31;19.00;93.30
7498;DHT22;3790;48.806;9.140;2022-08-21T22:08:52;19.10;94.30
7498;DHT22;3790;48.806;9.140;2022-08-21T22:14:13;19.00;98.10
7498;DHT22;3790;48.806;9.140;2022-08-21T22:19:22;18.80;99.90
7498;DHT22;3790;48.806;9.140;2022-08-21T22:24:27;18.70;99.90
7498;DHT22;3790;48.806;9.140;2022-08-21T22:29:48;18.60;99.90
7498;DHT22;3790;48.806;9.140;2022-08-21T22:35:22;18.40;99.90
7498;DHT22;3790;48.806;9.140;2022-08-21T22:40:32;18.40;99.90
7498;DHT22;3790;48.806;9.140;2022-08-21T22:46:03;18.20;99.90
7498;DHT22;3790;48.806;9.140;2022-08-21T22:51:10;18.30;99.90
7498;DHT22;3790;48.806;9.140;2022-08-21T22:56:36;18.30;99.90
7498;DHT22;3790;48.806;9.140;2022-08-21T23:01:42;18.30;99.90
7498;DHT22;3790;48.806;9.140;2022-08-21T23:06:53;18.50;99.90
7498;DHT22;3790;48.806;9.140;2022-08-21T23:11:59;18.60;99.90
7498;DHT22;3790;48.806;9.140;2022-08-21T23:17:07;18.60;99.90
7498;DHT22;3790;48.806;9.140;2022-08-21T23:22:35;18.50;99.90
7498;DHT22;3790;48.806;9.140;2022-08-21T23:48:54;17.80;99.90
7498;DHT22;3790;48.806;9.140;2022-08-21T23:54:23;17.70;99.90
